Time;durP1;ratioP1;P1;durP2;ratioP2;P2;SDS_P1;SDS_P2;PMS_P1;PMS_P2;Temp;Humidity;BMP_temperature;BMP_pressure;BME280_temperature;BME280_humidity;BME280_pressure;Samples;Min_cycle;Max_cycle;Signal;HPM_P1;HPM_P2
2021/04/27 00:00:58;;;;;;;;;;;19.80;58.30;;;;;;5094935;28;1643;-71
2021/04/27 00:03:23;;;;;;;;;;;19.80;58.30;;;;;;5094297;28;2058;-71
2021/04/27 00:05:49;;;;;;;;;;;19.80;58.30;;;;;;5094422;28;1114;-71
2021/04/27 00:08:14;;;;;;;;;;;19.80;58.30;;;;;;5093655;28;1664;-70
2021/04/27 00:10:39;;;;;;;;;;;19.80;58.30;;;;;;5095090;28;1684;-70
2021/04/27 00:13:05;;;;;;;;;;;19.80;58.30;;;;;;5094726;28;1664;-70
2021/04/27 00:15:30;;;;;;;;;;;19.80;58.30;;;;;;5092193;28;1477;-70
2021/04/27 00:17:56;;;;;;;;;;;19.70;58.30;;;;;;5094315;28;1106;-69
2021/04/27 00:20:23;;;;;;;;;;;19.70;58.30;;;;;;5093338;28;1385;-70
2021/04/27 00:22:48;;;;;;;;;;;19.80;58.30;;;;;;5093956;28;1901;-70
2021/04/27 00:25:14;;;;;;;;;;;19.70;58.30;;;;;;5093466;28;1352;-70
2021/04/27 00:27:39;;;;;;;;;;;19.70;58.30;;;;;;5093293;28;1480;-70
2021/04/27 00:30:05;;;;;;;;;;;19.70;58.30;;;;;;5092938;28;1729;-70
2021/04/27 00:32:34;;;;;;;;;;;19.70;58.30;;;;;;5093619;28;1098;-70
2021/04/27 00:34:59;;;;;;;;;;;19.70;58.40;;;;;;5093419;28;1395;-70
2021/04/27 00:37:24;;;;;;;;;;;19.70;58.40;;;;;;5072309;28;1389;-69
2021/04/27 00:39:50;;;;;;;;;;;19.70;58.40;;;;;;5092256;28;1360;-70
2021/04/27 00:42:15;;;;;;;;;;;19.70;58.40;;;;;;5092580;28;1901;-70
2021/04/27 00:44:41;;;;;;;;;;;19.70;58.40;;;;;;5093554;28;1214;-69
2021/04/27 00:47:06;;;;;;;;;;;19.70;58.40;;;;;;5094033;28;1674;-70
2021/04/27 00:49:32;;;;;;;;;;;19.70;58.40;;;;;;5093977;28;1670;-70
2021/04/27 00:51:57;;;;;;;;;;;19.70;58.40;;;;;;5094064;28;1436;-69
2021/04/27 00:54:22;;;;;;;;;;;19.70;58.40;;;;;;5093704;28;1439;-69
2021/04/27 00:56:48;;;;;;;;;;;19.70;58.40;;;;;;5092366;28;1459;-70
2021/04/27 00:59:13;;;;;;;;;;;19.70;58.40;;;;;;5093717;28;979;-69
2021/04/27 01:01:39;;;;;;;;;;;19.70;58.40;;;;;;5093517;28;1963;-69
2021/04/27 01:04:04;;;;;;;;;;;19.60;58.40;;;;;;5093904;28;1419;-70
2021/04/27 01:06:30;;;;;;;;;;;19.70;58.50;;;;;;5093274;28;1247;-70
2021/04/27 01:08:56;;;;;;;;;;;19.60;58.40;;;;;;5093499;28;1676;-70
2021/04/27 01:11:24;;;;;;;;;;;19.60;58.40;;;;;;5092677;28;1434;-70
2021/04/27 01:13:58;;;;;;;;;;;19.60;58.40;;;;;;5092485;28;1269;-70
2021/04/27 01:16:23;;;;;;;;;;;19.60;58.40;;;;;;5091682;28;1380;-70
2021/04/27 01:18:50;;;;;;;;;;;19.60;58.50;;;;;;5092176;28;1260;-70
2021/04/27 01:21:15;;;;;;;;;;;19.60;59.00;;;;;;5092373;28;1996;-69
2021/04/27 01:23:45;;;;;;;;;;;19.60;58.40;;;;;;5093636;28;1487;-68
2021/04/27 01:26:20;;;;;;;;;;;19.60;58.50;;;;;;5092379;28;1523;-68
2021/04/27 01:28:46;;;;;;;;;;;19.70;58.50;;;;;;5093330;28;1411;-69
2021/04/27 01:31:12;;;;;;;;;;;19.60;58.40;;;;;;5072551;28;1857;-68
2021/04/27 01:33:37;;;;;;;;;;;19.60;58.50;;;;;;5091607;28;1295;-68
2021/04/27 01:36:03;;;;;;;;;;;19.60;58.40;;;;;;5091437;28;1457;-70
2021/04/27 01:38:28;;;;;;;;;;;19.60;58.50;;;;;;5093329;28;1406;-69
2021/04/27 01:40:53;;;;;;;;;;;19.60;58.40;;;;;;5061722;28;1304;-72
2021/04/27 01:43:19;;;;;;;;;;;19.60;58.40;;;;;;5091581;28;1905;-70
2021/04/27 01:45:46;;;;;;;;;;;19.60;58.40;;;;;;5092878;28;797;-71
2021/04/27 01:48:11;;;;;;;;;;;19.60;58.40;;;;;;5074899;28;818;-70
2021/04/27 01:50:37;;;;;;;;;;;19.60;58.40;;;;;;5068147;28;1691;-70
2021/04/27 01:53:02;;;;;;;;;;;19.70;58.40;;;;;;5091885;28;1264;-70
2021/04/27 01:55:28;;;;;;;;;;;19.70;58.40;;;;;;5073791;28;1423;-70
2021/04/27 01:57:53;;;;;;;;;;;19.70;58.40;;;;;;5055206;28;1543;-71
2021/04/27 02:00:19;;;;;;;;;;;19.70;58.30;;;;;;5067586;28;1377;-70
2021/04/27 02:02:45;;;;;;;;;;;19.70;58.30;;;;;;5091598;28;1972;-69
2021/04/27 02:05:12;;;;;;;;;;;19.70;58.30;;;;;;5091590;28;1493;-70
2021/04/27 02:07:37;;;;;;;;;;;19.70;58.30;;;;;;5092991;28;1461;-69
2021/04/27 02:10:03;;;;;;;;;;;19.70;58.30;;;;;;5091501;28;1397;-69
2021/04/27 02:12:29;;;;;;;;;;;19.70;58.30;;;;;;5091841;28;1679;-69
2021/04/27 02:14:54;;;;;;;;;;;19.70;58.20;;;;;;5091665;28;1346;-69
2021/04/27 02:17:21;;;;;;;;;;;19.70;58.20;;;;;;5090830;28;1175;-69
2021/04/27 02:19:47;;;;;;;;;;;19.70;58.20;;;;;;5092787;28;1381;-69
2021/04/27 02:22:12;;;;;;;;;;;19.70;58.20;;;;;;5089940;28;1898;-69
2021/04/27 02:24:38;;;;;;;;;;;19.70;58.20;;;;;;5090234;28;1336;-70
2021/04/27 02:27:03;;;;;;;;;;;19.70;58.20;;;;;;5091842;28;934;-70
2021/04/27 02:29:29;;;;;;;;;;;19.70;58.10;;;;;;5091038;28;1392;-70
2021/04/27 02:31:55;;;;;;;;;;;19.70;58.20;;;;;;5091632;28;1392;-71
2021/04/27 02:34:21;;;;;;;;;;;19.70;58.10;;;;;;5090924;28;1247;-71
2021/04/27 02:36:47;;;;;;;;;;;19.80;58.20;;;;;;5090723;28;1403;-71
2021/04/27 02:39:12;;;;;;;;;;;19.80;58.00;;;;;;5092525;28;1347;-71
2021/04/27 02:41:37;;;;;;;;;;;19.80;58.00;;;;;;5092545;28;1894;-72
2021/04/27 02:44:03;;;;;;;;;;;19.80;58.00;;;;;;5091760;28;1666;-71
2021/04/27 02:46:29;;;;;;;;;;;19.90;57.90;;;;;;5090050;28;1138;-69
2021/04/27 02:48:55;;;;;;;;;;;20.00;57.70;;;;;;5090351;28;1249;-69
2021/04/27 02:51:20;;;;;;;;;;;20.10;57.50;;;;;;5092309;28;1173;-69
2021/04/27 02:53:45;;;;;;;;;;;20.20;57.30;;;;;;5089614;28;2219;-69
2021/04/27 02:56:11;;;;;;;;;;;20.30;57.10;;;;;;5070448;28;1092;-68
2021/04/27 02:58:36;;;;;;;;;;;20.40;56.90;;;;;;5085617;28;1071;-68
2021/04/27 03:01:02;;;;;;;;;;;20.60;56.70;;;;;;5092071;28;896;-69
2021/04/27 03:03:27;;;;;;;;;;;20.60;56.40;;;;;;5090840;28;1909;-69
2021/04/27 03:05:53;;;;;;;;;;;20.70;56.20;;;;;;5089710;28;1259;-69
2021/04/27 03:08:18;;;;;;;;;;;20.80;56.00;;;;;;5093407;28;1140;-69
2021/04/27 03:10:44;;;;;;;;;;;20.90;55.90;;;;;;5094489;28;1151;-69
2021/04/27 03:13:09;;;;;;;;;;;20.90;55.60;;;;;;5094807;28;1338;-70
2021/04/27 03:15:35;;;;;;;;;;;21.00;55.50;;;;;;5095015;28;1166;-69
2021/04/27 03:18:00;;;;;;;;;;;21.10;55.40;;;;;;5095634;28;1074;-69
2021/04/27 03:20:25;;;;;;;;;;;21.10;55.30;;;;;;5094370;28;1186;-69
2021/04/27 03:22:51;;;;;;;;;;;21.10;55.20;;;;;;5095559;28;1969;-69
2021/04/27 03:25:16;;;;;;;;;;;21.20;55.10;;;;;;5094075;28;1186;-69
2021/04/27 03:27:45;;;;;;;;;;;21.20;55.10;;;;;;5095592;28;1149;-69
2021/04/27 03:30:10;;;;;;;;;;;21.30;55.00;;;;;;5095055;28;1043;-69
2021/04/27 03:32:36;;;;;;;;;;;21.30;55.00;;;;;;5074017;28;1343;-69
2021/04/27 03:35:02;;;;;;;;;;;21.30;54.90;;;;;;5093359;28;1044;-69
2021/04/27 03:37:27;;;;;;;;;;;21.30;54.80;;;;;;5095654;28;1135;-69
2021/04/27 03:39:52;;;;;;;;;;;21.30;54.80;;;;;;5095121;28;972;-69
2021/04/27 03:42:18;;;;;;;;;;;21.40;54.90;;;;;;5095081;28;1906;-69
2021/04/27 03:44:43;;;;;;;;;;;21.30;54.80;;;;;;5093522;28;1232;-68
2021/04/27 03:47:09;;;;;;;;;;;21.30;54.80;;;;;;5093258;28;1072;-70
2021/04/27 03:49:34;;;;;;;;;;;21.40;54.90;;;;;;5095135;28;1196;-69
2021/04/27 03:52:00;;;;;;;;;;;21.40;54.90;;;;;;5095318;28;1062;-69
2021/04/27 03:54:25;;;;;;;;;;;21.30;54.80;;;;;;5092833;28;1363;-69
2021/04/27 03:56:51;;;;;;;;;;;21.40;54.90;;;;;;5094612;28;1078;-68
2021/04/27 03:59:16;;;;;;;;;;;21.40;54.90;;;;;;5094962;28;1091;-69
2021/04/27 04:01:41;;;;;;;;;;;21.30;54.80;;;;;;5095086;28;1914;-69
2021/04/27 04:04:10;;;;;;;;;;;21.30;54.90;;;;;;5094364;28;1260;-69
2021/04/27 04:06:35;;;;;;;;;;;21.30;54.90;;;;;;5094437;28;1188;-70
2021/04/27 04:09:05;;;;;;;;;;;21.30;55.00;;;;;;5093226;28;1095;-69
2021/04/27 04:11:31;;;;;;;;;;;21.20;55.00;;;;;;5095088;28;1344;-70
2021/04/27 04:13:56;;;;;;;;;;;21.30;55.10;;;;;;5093488;28;1393;-68
2021/04/27 04:16:22;;;;;;;;;;;21.30;55.10;;;;;;5094289;28;1103;-69
2021/04/27 04:18:47;;;;;;;;;;;21.30;55.20;;;;;;5092351;28;1329;-68
2021/04/27 04:21:13;;;;;;;;;;;21.20;55.70;;;;;;5092536;28;1059;-69
2021/04/27 04:23:38;;;;;;;;;;;21.20;55.20;;;;;;5092753;28;1963;-69
2021/04/27 04:26:04;;;;;;;;;;;21.20;55.20;;;;;;5094068;28;1125;-69
2021/04/27 04:28:29;;;;;;;;;;;21.20;55.90;;;;;;5094054;28;1169;-68
2021/04/27 04:30:55;;;;;;;;;;;21.20;55.30;;;;;;5094651;28;1165;-69
2021/04/27 04:33:20;;;;;;;;;;;21.20;55.40;;;;;;5092842;28;1263;-69
2021/04/27 04:35:46;;;;;;;;;;;21.10;55.40;;;;;;5093937;28;995;-68
2021/04/27 04:38:11;;;;;;;;;;;21.10;55.40;;;;;;5092886;28;1126;-68
2021/04/27 04:40:36;;;;;;;;;;;21.10;55.50;;;;;;5093614;28;1145;-68
2021/04/27 04:43:02;;;;;;;;;;;21.10;55.50;;;;;;5094312;28;1894;-69
2021/04/27 04:45:27;;;;;;;;;;;21.10;55.60;;;;;;5093730;28;1079;-69
2021/04/27 04:47:53;;;;;;;;;;;21.00;55.60;;;;;;5094128;28;1134;-69
2021/04/27 04:50:18;;;;;;;;;;;21.00;55.60;;;;;;5093968;28;1125;-68
2021/04/27 04:52:44;;;;;;;;;;;21.00;56.20;;;;;;5092726;28;1216;-69
2021/04/27 04:55:10;;;;;;;;;;;21.00;55.70;;;;;;5091997;28;1098;-69
2021/04/27 04:57:35;;;;;;;;;;;21.00;55.70;;;;;;5094099;28;1129;-70
2021/04/27 05:00:01;;;;;;;;;;;21.00;55.80;;;;;;5092664;28;1141;-69
2021/04/27 05:02:26;;;;;;;;;;;20.90;55.80;;;;;;5093658;28;1910;-69
2021/04/27 05:04:52;;;;;;;;;;;20.90;55.80;;;;;;5093609;28;1285;-68
2021/04/27 05:07:20;;;;;;;;;;;20.90;55.80;;;;;;5092967;28;1243;-69
2021/04/27 05:09:46;;;;;;;;;;;20.90;55.90;;;;;;5092223;28;1222;-70
2021/04/27 05:12:11;;;;;;;;;;;20.90;55.90;;;;;;5093694;28;1031;-69
2021/04/27 05:14:37;;;;;;;;;;;20.90;56.00;;;;;;5093262;28;1280;-69
2021/04/27 05:17:03;;;;;;;;;;;20.90;56.00;;;;;;5091291;28;1117;-69
2021/04/27 05:19:29;;;;;;;;;;;20.90;56.00;;;;;;5092020;28;1094;-68
2021/04/27 05:21:54;;;;;;;;;;;20.90;56.10;;;;;;5092039;28;1902;-69
2021/04/27 05:24:21;;;;;;;;;;;20.90;56.10;;;;;;5092243;28;1372;-69
2021/04/27 05:26:47;;;;;;;;;;;20.90;56.00;;;;;;5092544;28;1062;-69
2021/04/27 05:29:13;;;;;;;;;;;20.90;56.00;;;;;;5093096;28;1082;-69
2021/04/27 05:31:38;;;;;;;;;;;20.90;56.10;;;;;;5092687;28;1141;-69
2021/04/27 05:34:04;;;;;;;;;;;20.90;56.10;;;;;;5091831;28;1212;-69
2021/04/27 05:36:29;;;;;;;;;;;20.80;56.00;;;;;;5092072;28;1166;-69
2021/04/27 05:38:55;;;;;;;;;;;20.90;56.00;;;;;;5092826;28;1145;-68
2021/04/27 05:41:20;;;;;;;;;;;20.90;56.00;;;;;;5091684;28;1111;-69
2021/04/27 05:43:46;;;;;;;;;;;20.80;56.00;;;;;;5093002;28;1965;-69
2021/04/27 05:46:11;;;;;;;;;;;20.90;56.10;;;;;;5090691;28;1103;-68
2021/04/27 05:48:37;;;;;;;;;;;20.80;56.10;;;;;;5091717;28;1170;-69
2021/04/27 05:51:02;;;;;;;;;;;20.80;56.10;;;;;;5092875;28;1079;-69
2021/04/27 05:53:27;;;;;;;;;;;20.80;56.10;;;;;;5113424;22;3677;-70
2021/04/27 05:55:53;;;;;;;;;;;20.80;56.10;;;;;;5055877;28;1500;-70
2021/04/27 05:58:18;;;;;;;;;;;20.80;56.10;;;;;;5062811;28;1115;-70
2021/04/27 06:00:44;;;;;;;;;;;20.80;56.20;;;;;;5073055;28;1277;-70
2021/04/27 06:03:09;;;;;;;;;;;20.80;56.20;;;;;;5054995;28;1959;-70
2021/04/27 06:05:35;;;;;;;;;;;20.80;56.20;;;;;;5072630;28;1134;-70
2021/04/27 06:08:00;;;;;;;;;;;20.80;56.20;;;;;;5073062;28;1146;-70
2021/04/27 06:10:25;;;;;;;;;;;20.80;56.30;;;;;;5054798;28;1068;-70
2021/04/27 06:12:51;;;;;;;;;;;20.80;56.30;;;;;;5072942;28;1112;-70
2021/04/27 06:15:19;;;;;;;;;;;20.70;56.30;;;;;;5071995;28;1294;-70
2021/04/27 06:17:45;;;;;;;;;;;20.70;56.30;;;;;;5072869;28;1094;-70
2021/04/27 06:20:10;;;;;;;;;;;20.70;56.30;;;;;;5038199;28;1388;-70
2021/04/27 06:22:36;;;;;;;;;;;20.70;56.40;;;;;;5054555;28;1973;-70
2021/04/27 06:25:02;;;;;;;;;;;20.70;56.40;;;;;;5059899;28;1805;-68
2021/04/27 06:27:28;;;;;;;;;;;20.70;56.50;;;;;;5056573;28;961;-72
2021/04/27 06:29:54;;;;;;;;;;;20.70;56.50;;;;;;5046325;28;1390;-72
2021/04/27 06:32:19;;;;;;;;;;;20.70;56.50;;;;;;5054675;28;1115;-72
2021/04/27 06:34:45;;;;;;;;;;;20.60;56.50;;;;;;5061123;28;1271;-72
2021/04/27 06:37:10;;;;;;;;;;;20.60;56.50;;;;;;5054099;28;1183;-70
2021/04/27 06:39:35;;;;;;;;;;;20.60;56.60;;;;;;5072373;28;1122;-70
2021/04/27 06:42:01;;;;;;;;;;;20.60;56.60;;;;;;5054604;28;1957;-70
2021/04/27 06:44:26;;;;;;;;;;;20.60;56.60;;;;;;5075432;28;1446;-69
2021/04/27 06:46:52;;;;;;;;;;;20.60;56.60;;;;;;5058408;28;1471;-67
2021/04/27 06:49:18;;;;;;;;;;;20.60;56.70;;;;;;5058404;28;1140;-67
2021/04/27 06:51:43;;;;;;;;;;;20.60;56.70;;;;;;5075827;28;1279;-68
2021/04/27 06:54:09;;;;;;;;;;;20.60;56.70;;;;;;5075941;28;1370;-70
2021/04/27 06:56:34;;;;;;;;;;;20.60;56.70;;;;;;5057996;28;1091;-71
2021/04/27 06:58:59;;;;;;;;;;;20.50;56.70;;;;;;5076152;28;1079;-71
2021/04/27 07:01:25;;;;;;;;;;;20.50;57.30;;;;;;5058641;28;1099;-71
2021/04/27 07:03:50;;;;;;;;;;;20.50;56.70;;;;;;5076119;28;1906;-71
2021/04/27 07:06:16;;;;;;;;;;;20.50;56.70;;;;;;5075763;28;1166;-71
2021/04/27 07:08:41;;;;;;;;;;;20.50;56.80;;;;;;5076122;28;1107;-71
2021/04/27 07:11:07;;;;;;;;;;;20.50;56.80;;;;;;5058461;28;1004;-71
2021/04/27 07:13:32;;;;;;;;;;;20.50;56.80;;;;;;5075759;28;1273;-71
2021/04/27 07:15:58;;;;;;;;;;;20.50;56.80;;;;;;5075612;28;1091;-72
2021/04/27 07:18:23;;;;;;;;;;;20.50;56.80;;;;;;5075947;28;1186;-71
2021/04/27 07:20:49;;;;;;;;;;;20.50;56.80;;;;;;5075761;28;1071;-71
2021/04/27 07:23:14;;;;;;;;;;;20.50;56.90;;;;;;5057795;28;1905;-71
2021/04/27 07:25:39;;;;;;;;;;;20.40;56.80;;;;;;5057422;28;1121;-71
2021/04/27 07:28:05;;;;;;;;;;;20.40;56.80;;;;;;5041052;28;1135;-71
2021/04/27 07:30:31;;;;;;;;;;;20.40;56.90;;;;;;5075647;28;1114;-71
2021/04/27 07:32:56;;;;;;;;;;;20.40;56.90;;;;;;5041335;28;1387;-71
2021/04/27 07:35:22;;;;;;;;;;;20.40;56.90;;;;;;5057156;28;1229;-71
2021/04/27 07:37:47;;;;;;;;;;;20.40;57.00;;;;;;5075601;28;1102;-71
2021/04/27 07:40:13;;;;;;;;;;;20.40;57.00;;;;;;5057757;28;1060;-71
2021/04/27 07:42:38;;;;;;;;;;;20.40;57.00;;;;;;5057666;28;1898;-72
2021/04/27 07:45:04;;;;;;;;;;;20.40;57.00;;;;;;5057355;28;1202;-71
2021/04/27 07:47:29;;;;;;;;;;;20.40;57.00;;;;;;5057618;28;1212;-70
2021/04/27 07:49:55;;;;;;;;;;;20.40;57.10;;;;;;5057292;28;1083;-71
2021/04/27 07:52:20;;;;;;;;;;;20.40;57.10;;;;;;5075456;28;1095;-71
2021/04/27 07:54:46;;;;;;;;;;;20.40;57.10;;;;;;5056957;28;1236;-71
2021/04/27 07:57:14;;;;;;;;;;;20.40;57.10;;;;;;5075135;28;1138;-70
2021/04/27 07:59:39;;;;;;;;;;;20.40;57.10;;;;;;5057262;28;1162;-70
2021/04/27 08:02:05;;;;;;;;;;;20.40;57.10;;;;;;5075067;28;1913;-70
2021/04/27 08:04:30;;;;;;;;;;;20.40;57.20;;;;;;5074960;28;1304;-71
2021/04/27 08:06:55;;;;;;;;;;;20.30;57.10;;;;;;5074789;28;1114;-70
2021/04/27 08:09:21;;;;;;;;;;;20.30;57.20;;;;;;5075205;28;1083;-71
2021/04/27 08:11:46;;;;;;;;;;;20.30;57.20;;;;;;5075017;28;1047;-71
2021/04/27 08:14:13;;;;;;;;;;;20.30;57.20;;;;;;5056699;28;1290;-71
2021/04/27 08:16:39;;;;;;;;;;;20.30;57.20;;;;;;5056912;28;1127;-71
2021/04/27 08:19:04;;;;;;;;;;;20.30;57.20;;;;;;5040338;28;1223;-71
2021/04/27 08:21:30;;;;;;;;;;;20.30;57.30;;;;;;5056853;28;1953;-70
2021/04/27 08:23:55;;;;;;;;;;;20.30;57.20;;;;;;5074682;28;1227;-72
2021/04/27 08:26:20;;;;;;;;;;;20.30;57.30;;;;;;5056314;28;1230;-71
2021/04/27 08:28:46;;;;;;;;;;;20.30;57.30;;;;;;5056675;28;1295;-71
2021/04/27 08:31:11;;;;;;;;;;;20.30;57.30;;;;;;5056478;28;1130;-72
2021/04/27 08:33:37;;;;;;;;;;;20.30;57.30;;;;;;5056330;28;1378;-71
2021/04/27 08:36:02;;;;;;;;;;;20.30;57.30;;;;;;5056382;28;1289;-72
2021/04/27 08:38:28;;;;;;;;;;;20.30;57.30;;;;;;5074724;28;1063;-72
2021/04/27 08:40:54;;;;;;;;;;;20.30;57.40;;;;;;5074382;28;1056;-71
2021/04/27 08:43:19;;;;;;;;;;;20.30;57.40;;;;;;5056606;28;1902;-71
2021/04/27 08:45:45;;;;;;;;;;;20.20;57.40;;;;;;5074255;28;1126;-71
2021/04/27 08:48:11;;;;;;;;;;;20.20;57.40;;;;;;5074224;28;1075;-72
2021/04/27 08:50:37;;;;;;;;;;;20.20;57.40;;;;;;5074209;28;1483;-72
2021/04/27 08:53:04;;;;;;;;;;;20.20;57.40;;;;;;5060795;28;1053;-71
2021/04/27 08:55:30;;;;;;;;;;;20.20;57.40;;;;;;5038884;28;1188;-72
2021/04/27 08:57:55;;;;;;;;;;;20.20;57.50;;;;;;5074081;28;791;-72
2021/04/27 09:00:23;;;;;;;;;;;20.20;57.50;;;;;;5073784;28;1114;-72
2021/04/27 09:02:55;;;;;;;;;;;20.20;57.50;;;;;;5073607;28;1961;-71
2021/04/27 09:05:22;;;;;;;;;;;20.10;57.50;;;;;;5072667;28;1211;-71
2021/04/27 09:07:48;;;;;;;;;;;20.20;57.60;;;;;;5073934;28;1055;-72
2021/04/27 09:10:17;;;;;;;;;;;20.10;57.60;;;;;;5073845;28;1091;-72
2021/04/27 09:12:46;;;;;;;;;;;20.10;57.60;;;;;;5056038;28;1130;-72
2021/04/27 09:15:21;;;;;;;;;;;20.10;57.60;;;;;;5072986;28;1218;-72
2021/04/27 09:17:46;;;;;;;;;;;20.10;57.70;;;;;;5055802;28;1127;-71
2021/04/27 09:20:12;;;;;;;;;;;20.10;57.70;;;;;;5073658;28;1114;-72
2021/04/27 09:22:39;;;;;;;;;;;20.10;57.70;;;;;;5073503;28;1899;-72
2021/04/27 09:25:06;;;;;;;;;;;20.10;57.70;;;;;;5055751;28;1376;-72
2021/04/27 09:27:37;;;;;;;;;;;20.10;57.80;;;;;;5073290;28;1154;-72
2021/04/27 09:30:15;;;;;;;;;;;20.10;57.70;;;;;;5073234;28;1111;-72
2021/04/27 09:32:44;;;;;;;;;;;20.10;57.80;;;;;;5055554;28;1549;-71
2021/04/27 09:35:26;;;;;;;;;;;20.10;57.90;;;;;;5072942;28;1272;-72
2021/04/27 09:38:11;;;;;;;;;;;20.10;57.90;;;;;;5046288;28;1978;-71
2021/04/27 09:40:45;;;;;;;;;;;20.00;57.80;;;;;;5067310;28;971;-71
2021/04/27 09:43:10;;;;;;;;;;;20.00;57.90;;;;;;5065806;28;1963;-71
2021/04/27 09:45:45;;;;;;;;;;;20.00;57.90;;;;;;5026663;28;1588;-71
2021/04/27 09:48:11;;;;;;;;;;;20.00;57.90;;;;;;5054901;28;1144;-72
2021/04/27 09:50:36;;;;;;;;;;;20.00;57.90;;;;;;5055239;28;1068;-72
2021/04/27 09:53:02;;;;;;;;;;;20.00;57.90;;;;;;5055177;28;1092;-70
2021/04/27 09:55:32;;;;;;;;;;;20.00;57.90;;;;;;5072574;28;1187;-72
2021/04/27 09:57:57;;;;;;;;;;;20.00;58.00;;;;;;5073021;28;1111;-72
2021/04/27 10:00:23;;;;;;;;;;;20.00;58.00;;;;;;5072983;28;1063;-70
2021/04/27 10:02:49;;;;;;;;;;;20.00;58.00;;;;;;5072730;28;1910;-69
2021/04/27 10:05:14;;;;;;;;;;;19.90;58.00;;;;;;5054681;28;1310;-69
2021/04/27 10:07:40;;;;;;;;;;;20.00;58.10;;;;;;5038383;28;1439;-69
2021/04/27 10:10:08;;;;;;;;;;;20.00;58.10;;;;;;5072889;28;1144;-69
2021/04/27 10:12:34;;;;;;;;;;;19.90;58.60;;;;;;5072972;28;1009;-69
2021/04/27 10:15:00;;;;;;;;;;;19.90;58.10;;;;;;5072541;28;1185;-71
2021/04/27 10:17:26;;;;;;;;;;;19.90;58.10;;;;;;5072721;28;1087;-71
2021/04/27 10:19:51;;;;;;;;;;;19.90;57.80;;;;;;5071825;28;1990;-69
2021/04/27 10:22:17;;;;;;;;;;;19.90;55.50;;;;;;5070707;28;2275;-69
2021/04/27 10:24:42;;;;;;;;;;;19.90;53.60;;;;;;5060946;28;1343;-69
2021/04/27 10:27:08;;;;;;;;;;;19.80;50.10;;;;;;5054690;28;1059;-69
2021/04/27 10:29:33;;;;;;;;;;;19.80;45.60;;;;;;5061304;28;1302;-69
2021/04/27 10:32:14;;;;;;;;;;;19.80;40.90;;;;;;5060343;28;1314;-69
2021/04/27 10:34:59;;;;;;;;;;;19.70;41.90;;;;;;5072421;28;1271;-69
2021/04/27 10:37:26;;;;;;;;;;;19.70;39.90;;;;;;5072278;28;1083;-69
2021/04/27 10:39:51;;;;;;;;;;;19.70;41.70;;;;;;5054657;28;1147;-69
2021/04/27 10:42:20;;;;;;;;;;;19.70;41.60;;;;;;5072509;28;1890;-72
2021/04/27 10:44:50;;;;;;;;;;;19.60;41.40;;;;;;5072317;28;1126;-69
2021/04/27 10:47:18;;;;;;;;;;;19.60;41.50;;;;;;5072139;28;1176;-71
2021/04/27 10:49:43;;;;;;;;;;;19.60;41.40;;;;;;5072597;28;1123;-70
2021/04/27 10:52:24;;;;;;;;;;;19.60;42.40;;;;;;5054673;28;1068;-69
2021/04/27 10:54:49;;;;;;;;;;;19.60;40.40;;;;;;5072059;28;1260;-69
2021/04/27 10:57:15;;;;;;;;;;;19.50;40.40;;;;;;5072194;28;1095;-69
2021/04/27 10:59:49;;;;;;;;;;;19.50;40.50;;;;;;5072300;28;1107;-69
2021/04/27 11:02:17;;;;;;;;;;;19.50;40.60;;;;;;5072180;28;1965;-71
2021/04/27 11:04:43;;;;;;;;;;;19.50;40.20;;;;;;5054748;28;1198;-70
2021/04/27 11:07:24;;;;;;;;;;;19.50;39.70;;;;;;5072096;28;1363;-69
2021/04/27 11:10:07;;;;;;;;;;;19.50;40.20;;;;;;5072232;28;1095;-70
2021/04/27 11:12:51;;;;;;;;;;;19.50;40.20;;;;;;5072498;28;995;-69
2021/04/27 11:15:24;;;;;;;;;;;19.50;39.10;;;;;;5058354;28;1262;-69
2021/04/27 11:18:05;;;;;;;;;;;19.40;38.50;;;;;;5054521;28;1083;-67
2021/04/27 11:20:45;;;;;;;;;;;19.40;38.50;;;;;;5072123;28;1135;-67
2021/04/27 11:23:29;;;;;;;;;;;19.40;40.00;;;;;;5072016;28;1969;-66
2021/04/27 11:25:54;;;;;;;;;;;19.40;39.20;;;;;;5071856;28;1142;-67
2021/04/27 11:28:20;;;;;;;;;;;19.40;39.50;;;;;;5054287;28;1042;-67
2021/04/27 11:30:45;;;;;;;;;;;19.40;40.30;;;;;;5057653;28;1258;-67
2021/04/27 11:33:11;;;;;;;;;;;19.30;41.40;;;;;;5057744;28;1418;-69
2021/04/27 11:35:40;;;;;;;;;;;19.30;41.20;;;;;;5075477;28;1055;-69
2021/04/27 11:38:06;;;;;;;;;;;19.30;41.90;;;;;;5057639;28;1135;-70
2021/04/27 11:40:32;;;;;;;;;;;19.30;42.50;;;;;;5041185;28;1200;-68
2021/04/27 11:42:59;;;;;;;;;;;19.30;42.90;;;;;;5075536;28;1905;-68
2021/04/27 11:45:27;;;;;;;;;;;19.30;43.30;;;;;;5057469;28;1324;-68
2021/04/27 11:47:52;;;;;;;;;;;19.30;43.70;;;;;;5075560;28;1135;-70
2021/04/27 11:50:19;;;;;;;;;;;19.40;44.20;;;;;;5075597;28;1036;-70
2021/04/27 11:52:51;;;;;;;;;;;19.30;44.70;;;;;;5057562;28;1150;-71
2021/04/27 11:55:21;;;;;;;;;;;19.40;45.20;;;;;;5056239;22;1760;-66
2021/04/27 11:57:48;;;;;;;;;;;19.40;45.70;;;;;;5023788;28;1105;-66
2021/04/27 12:00:13;;;;;;;;;;;19.40;46.00;;;;;;5035403;28;1072;-66
2021/04/27 12:02:39;;;;;;;;;;;19.40;46.40;;;;;;5017445;28;1952;-66
2021/04/27 12:05:05;;;;;;;;;;;19.40;46.70;;;;;;5017321;28;1326;-66
2021/04/27 12:07:30;;;;;;;;;;;19.40;47.50;;;;;;5003875;28;1365;-67
2021/04/27 12:09:57;;;;;;;;;;;19.40;47.40;;;;;;5035123;28;1068;-66
2021/04/27 12:12:23;;;;;;;;;;;19.40;47.60;;;;;;5035148;28;997;-66
2021/04/27 12:14:49;;;;;;;;;;;19.50;47.90;;;;;;5034702;28;1284;-66
2021/04/27 12:17:28;;;;;;;;;;;19.60;48.10;;;;;;5017221;28;1176;-66
2021/04/27 12:20:07;;;;;;;;;;;19.70;48.10;;;;;;5034665;28;1971;-66
2021/04/27 12:22:32;;;;;;;;;;;19.80;48.00;;;;;;5011475;28;1903;-66
2021/04/27 12:24:58;;;;;;;;;;;19.80;48.10;;;;;;5045187;28;1325;-66
2021/04/27 12:27:23;;;;;;;;;;;19.90;48.10;;;;;;5047041;28;1205;-65
2021/04/27 12:30:20;;;;;;;;;;;20.00;48.20;;;;;;5031059;28;1422;-65
2021/04/27 12:32:47;;;;;;;;;;;20.10;48.30;;;;;;5022063;28;1637;-66
2021/04/27 12:35:18;;;;;;;;;;;20.10;48.30;;;;;;5034261;28;1305;-65
2021/04/27 12:37:44;;;;;;;;;;;20.20;48.40;;;;;;5034578;28;1124;-66
2021/04/27 12:40:19;;;;;;;;;;;20.30;48.40;;;;;;5033633;28;1147;-66
2021/04/27 12:42:46;;;;;;;;;;;20.30;48.40;;;;;;5034710;28;1969;-65
2021/04/27 12:45:12;;;;;;;;;;;20.40;48.50;;;;;;5016590;28;1259;-66
2021/04/27 12:47:37;;;;;;;;;;;20.40;48.50;;;;;;5034637;28;1096;-65
2021/04/27 12:50:15;;;;;;;;;;;20.40;48.50;;;;;;5034151;28;1049;-66
2021/04/27 12:52:41;;;;;;;;;;;20.40;48.60;;;;;;5017069;28;1142;-66
2021/04/27 12:55:11;;;;;;;;;;;20.50;48.60;;;;;;5033954;28;1188;-66
2021/04/27 12:57:36;;;;;;;;;;;20.50;48.60;;;;;;5016454;28;1120;-66
2021/04/27 13:00:04;;;;;;;;;;;20.60;48.70;;;;;;5016549;28;1159;-67
2021/04/27 13:02:29;;;;;;;;;;;20.60;48.70;;;;;;5016014;28;1899;-65
2021/04/27 13:04:57;;;;;;;;;;;20.60;48.80;;;;;;5033991;28;1185;-66
2021/04/27 13:07:28;;;;;;;;;;;20.60;48.80;;;;;;5020340;28;1285;-67
2021/04/27 13:09:57;;;;;;;;;;;20.70;49.00;;;;;;5033968;28;1176;-66
2021/04/27 13:12:22;;;;;;;;;;;20.70;49.00;;;;;;5016730;28;1120;-66
2021/04/27 13:14:52;;;;;;;;;;;20.70;49.00;;;;;;5015901;28;1393;-66
2021/04/27 13:17:23;;;;;;;;;;;20.70;49.00;;;;;;5015796;28;1105;-66
2021/04/27 13:19:57;;;;;;;;;;;20.70;49.00;;;;;;5033664;28;1136;-65
2021/04/27 13:22:33;;;;;;;;;;;20.80;49.10;;;;;;5013184;28;1903;-67
2021/04/27 13:25:00;;;;;;;;;;;20.70;49.10;;;;;;5013587;28;1296;-66
2021/04/27 13:27:26;;;;;;;;;;;20.70;49.10;;;;;;5030488;28;1217;-67
2021/04/27 13:30:21;;;;;;;;;;;20.80;49.20;;;;;;5015921;28;1089;-67
2021/04/27 13:32:56;;;;;;;;;;;20.80;49.20;;;;;;5012471;28;1275;-66
2021/04/27 13:35:26;;;;;;;;;;;20.80;49.20;;;;;;5015565;28;1188;-66
2021/04/27 13:37:52;;;;;;;;;;;20.80;49.30;;;;;;5033828;28;1096;-66
2021/04/27 13:40:17;;;;;;;;;;;20.80;49.40;;;;;;5033371;28;1437;-65
2021/04/27 13:42:46;;;;;;;;;;;20.80;49.40;;;;;;5025837;28;2014;-66
2021/04/27 13:45:12;;;;;;;;;;;20.90;49.40;;;;;;5022126;28;1280;-66
2021/04/27 13:47:38;;;;;;;;;;;20.90;49.50;;;;;;5027179;28;1248;-66
2021/04/27 13:50:03;;;;;;;;;;;20.90;49.50;;;;;;5025658;28;1249;-66
2021/04/27 13:52:28;;;;;;;;;;;20.90;49.50;;;;;;5021440;28;978;-66
2021/04/27 13:54:54;;;;;;;;;;;20.90;49.50;;;;;;5030275;28;1298;-67
2021/04/27 13:57:20;;;;;;;;;;;20.90;49.60;;;;;;5029221;28;1042;-66
2021/04/27 13:59:48;;;;;;;;;;;20.90;49.60;;;;;;5033168;28;1080;-65
2021/04/27 14:02:14;;;;;;;;;;;20.90;49.60;;;;;;5015357;28;1906;-64
2021/04/27 14:04:39;;;;;;;;;;;21.00;49.70;;;;;;5015389;28;1212;-63
2021/04/27 14:07:05;;;;;;;;;;;20.90;49.70;;;;;;5032638;28;1275;-64
2021/04/27 14:09:30;;;;;;;;;;;21.00;49.80;;;;;;5033084;28;1065;-63
2021/04/27 14:11:56;;;;;;;;;;;21.00;49.80;;;;;;5033191;28;1108;-64
2021/04/27 14:14:22;;;;;;;;;;;21.00;49.80;;;;;;5033043;28;1286;-64
2021/04/27 14:16:48;;;;;;;;;;;21.00;49.90;;;;;;5032572;28;1144;-63
2021/04/27 14:19:13;;;;;;;;;;;21.00;49.90;;;;;;5023360;28;1542;-66
2021/04/27 14:21:38;;;;;;;;;;;21.00;49.90;;;;;;5020241;28;1279;-66
2021/04/27 14:24:04;;;;;;;;;;;21.00;50.00;;;;;;5028604;28;1969;-67
2021/04/27 14:26:29;;;;;;;;;;;21.00;50.00;;;;;;5027617;28;1107;-66
2021/04/27 14:28:55;;;;;;;;;;;21.00;50.00;;;;;;5024799;28;1115;-66